Station CDRF1 - Cedar Key, FL Image indicating link to RSS feed of recent meteorological observations for station CDRF1


Conditions at CDRF1 as of
(7:40 am EDT)
1140 GMT on 09/06/2026:
     

Click on the graph icon in the table below to see a time series plot of the last five days of that observation.

5-day plot - Wind Direction Wind Direction (WDIR): N ( 360 deg true )
5-day plot - Wind Speed Wind Speed (WSPD): 3 kts
5-day plot - Wind Gust Wind Gust (GST): 5 kts
5-day plot - Atmospheric Pressure Atmospheric Pressure (PRES):29.91 in
5-day plot - Air Temperature Air Temperature (ATMP): 79.5 °F
5-day plot - Dew Point Dew Point (DEWP): 77.5 °F
5-day plot - Heat Index Heat Index (HEAT): 84.7 °F
5-day plot - Wind Speed at 10 Meters Wind Speed at 10 meters (WSPD10M): 4 kts
5-day plot - Wind Speed at 20 Meters Wind Speed at 20 meters (WSPD20M): 4 kts
5-day plot -  Wind Speed, Wind Gust and Atmospheric Pressure Combined plot of Wind Speed, Gust, and Air Pressure
Supplemental Measurements
Lowest 1-minute Pressure
Time (EDT)Pressure
7:31 am29.91 in
Highest 1-minute Wind Speed
Time (EDT)5-day plot - 1-Minute Wind Speed WSPD 5-day plot - 1-Minute Wind Direction WDIR
7:37 am 4 kts N ( 360 deg true )
Previous observations
TIME
(EDT)
5-day plot - Wind Direction
WDIR
 
5-day plot - Wind Speed
WSPD
kts
5-day plot - Wind Gust
GST
kts
5-day plot - Wave Height
WVHT
ft
5-day plot - Dominant Wave Period
DPD
sec
5-day plot - Average Wave Period
APD
sec
5-day plot - Mean Wave Direction
MWD
 
5-day plot - Atmospheric Pressure
PRES
in
5-day plot - Pressure Tendency
PTDY
in
5-day plot - Air Temperature
ATMP
°F
5-day plot - Water Temperature
WTMP
°F
5-day plot - Dew Point
DEWP
°F
5-day plot - Salinity
SAL
psu
5-day plot - Visibility
VIS
nmi
5-day plot - Tide (above MLLW)
TIDE
ft
2026-09-06 07:30 am N 3 4----29.90- 79.3- 77.5---
2026-09-06 07:20 am NE 1 3----29.90- 79.2- 77.5---
2026-09-06 07:10 am NE 7 12----29.90- 79.5- 77.4---
2026-09-06 07:00 am N 9 15----29.89+0.04 77.9- 75.9---
2026-09-06 06:50 amNNW 5 9----29.89- 78.6- 75.9---
2026-09-06 06:40 am NW 5 10----29.89- 81.7- 76.5---
2026-09-06 06:30 amWSW 5 8----29.88- 82.9- 77.0---
2026-09-06 06:20 amSSW 8 13----29.88- 81.3- 76.3---
2026-09-06 06:10 amSSW 9 15----29.88- 80.8- 74.7---
2026-09-06 06:00 am SW 10 19----29.88+0.01 81.3- 76.3---
2026-09-06 05:50 am W 7 11----29.88- 83.1- 74.7---
2026-09-06 05:40 am W 7 12----29.87- 83.5- 76.3---
2026-09-06 05:30 am W 6 9----29.87- 84.2- 77.9---
2026-09-06 05:20 am W 5 8----29.86- 84.4- 77.9---
2026-09-06 05:10 am W 2 5----29.87- 84.4- 77.2---
2026-09-06 05:00 amWNW 3 5----29.86-0.01 84.4- 77.0---
2026-09-06 04:50 am W 3 5----29.86- 84.4- 77.0---
2026-09-06 04:40 amWNW 3 5----29.86- 84.6- 77.0---
2026-09-06 04:30 am W 3 6----29.85- 84.7- 76.6---
2026-09-06 04:20 am W 4 6----29.85- 84.6- 76.5---
2026-09-06 04:10 am W 5 8----29.85- 84.7- 77.2---
2026-09-06 04:00 am W 5 8----29.85-0.06 84.9- 76.8---
2026-09-06 03:50 am W 5 9----29.85- 84.9- 76.8---
2026-09-06 03:40 am W 5 8----29.85- 84.9- 77.2---
2026-09-06 03:30 am W 5 7----29.86- 84.9- 76.6---
2026-09-06 03:20 am W 5 8----29.86- 84.9- 76.6---
2026-09-06 03:10 am W 5 8----29.86- 84.9- 77.0---
2026-09-06 03:00 amWSW 4 7----29.86-0.05 85.1- 77.4---
2026-09-06 02:50 am W 5 9----29.86- 84.9- 77.5---
2026-09-06 02:40 amWSW 5 9----29.87- 85.1- 77.9---
2026-09-06 02:30 amWSW 5 9----29.87- 85.1- 77.7---
2026-09-06 02:20 amWSW 5 10----29.87- 85.1- 78.1---
2026-09-06 02:10 amWSW 5 9----29.87- 85.1- 77.7---
2026-09-06 02:00 amWSW 5 9----29.88-0.03 85.3- 77.7---
2026-09-06 01:50 amWSW 5 9----29.88- 85.1- 77.5---
2026-09-06 01:40 amWSW 4 7----29.89- 85.1- 77.4---
2026-09-06 01:30 amWSW 4 7----29.90- 85.1- 77.7---
2026-09-06 01:20 am W 4 7----29.90- 85.1- 77.5---
2026-09-06 01:10 am W 4 7----29.90- 85.1- 77.5---
2026-09-06 01:00 am W 4 7----29.91+0.01 85.3- 77.2---
2026-09-06 12:50 am W 4 7----29.91- 85.3- 77.4---
2026-09-06 12:40 am W 4 8----29.90- 85.3- 77.7---
2026-09-06 12:30 am W 4 7----29.91- 85.3- 77.5---
2026-09-06 12:20 am W 5 8----29.91- 85.3- 77.4---
2026-09-06 12:10 am W 5 7----29.91- 85.5- 76.8---
2026-09-06 12:00 am W 5 10----29.91+0.02 85.5- 76.6---
2026-09-05 11:50 pm W 5 8----29.91- 85.5- 77.0---
2026-09-05 11:40 pm W 4 8----29.91- 85.5- 77.4---
2026-09-05 11:30 pm W 4 7----29.91- 85.5- 77.5---
2026-09-05 11:20 pm W 4 7----29.91- 85.5- 77.7---
2026-09-05 11:10 pm W 4 7----29.91- 85.5- 77.5---
2026-09-05 11:00 pm W 4 7----29.91+0.03 85.6- 77.7---
2026-09-05 10:50 pmWSW 4 8----29.90- 85.6- 77.9---
2026-09-05 10:40 pmWSW 5 10----29.90- 85.6- 77.5---
2026-09-05 10:30 pmWSW 4 8----29.90- 85.6- 77.0---
2026-09-05 10:20 pm W 4 7----29.91- 85.6- 76.3---
2026-09-05 10:10 pm W 4 7----29.90- 85.6- 76.6---
2026-09-05 10:00 pmWSW 4 7----29.90+0.02 85.8- 77.4---
2026-09-05 09:50 pm W 4 6----29.90- 85.6- 76.8---
2026-09-05 09:40 pm W 4 7----29.90- 85.8- 76.8---
2026-09-05 09:30 pm W 5 9----29.89- 85.6- 77.9---
2026-09-05 09:20 pm W 5 8----29.89- 85.6- 78.1---
2026-09-05 09:10 pm W 5 9----29.89- 85.6- 78.1---
2026-09-05 09:00 pm W 5 9----29.88-0.01 85.8- 77.5---
2026-09-05 08:50 pm W 6 9----29.88- 85.8- 77.2---
2026-09-05 08:40 pmWSW 6 10----29.88- 86.0- 77.0---
2026-09-05 08:30 pmWSW 5 9----29.88- 86.0- 77.2---
2026-09-05 08:20 pmWSW 5 10----29.87- 86.0- 76.8---
2026-09-05 08:10 pm W 5 9----29.87- 85.8- 76.6---
2026-09-05 08:00 pm W 5 7----29.88-0.03 85.8- 77.5---
2026-09-05 07:50 pm W 5 8----29.87- 85.8- 77.9---
2026-09-05 07:40 pm W 5 8----29.87- 86.2- 77.7---
2026-09-05 07:30 pm W 5 7----29.88- 86.5- 77.7---
2026-09-05 07:20 pm W 5 10----29.88- 86.7- 77.7---
2026-09-05 07:10 pm W 6 10----29.88- 86.9- 77.5---
2026-09-05 07:00 pm W 6 10----29.88-0.02 86.9- 77.5---
2026-09-05 06:50 pm W 5 9----29.88- 87.1- 78.1---
2026-09-05 06:40 pm W 6 9----29.89- 87.3- 77.9---
2026-09-05 06:30 pm W 6 9----29.89- 87.3- 77.0---
2026-09-05 06:20 pm W 5 9----29.89- 87.1- 77.7---
2026-09-05 06:10 pm W 5 10----29.90- 87.4- 77.7---
2026-09-05 06:00 pm W 7 11----29.90-0.01 87.6- 77.2---
2026-09-05 05:50 pm W 6 10----29.91- 88.2- 77.2---
2026-09-05 05:40 pm W 6 13----29.90- 88.2- 77.2---
2026-09-05 05:30 pm W 6 10----29.90- 88.0- 77.2---
2026-09-05 05:20 pm W 6 11----29.90- 88.3- 77.4---
2026-09-05 05:10 pm W 7 12----29.90- 88.3- 77.2---
2026-09-05 05:00 pm W 7 12----29.90-0.03 88.3- 77.2---
2026-09-05 04:50 pm W 6 11----29.90- 88.3- 77.5---
2026-09-05 04:40 pm W 9 12----29.90- 87.4- 77.5---
2026-09-05 04:30 pm W 9 12----29.90- 87.6- 77.4---
2026-09-05 04:20 pm W 8 13----29.91- 88.0- 77.0---
2026-09-05 04:10 pm W 9 13----29.91- 87.8- 77.4---
2026-09-05 04:00 pm W 8 15----29.90-0.04 88.3- 77.7---
2026-09-05 03:50 pm W 7 12----29.90- 88.5- 78.3---
2026-09-05 03:40 pm W 7 11----29.90- 87.6- 78.4---
2026-09-05 03:30 pm W 7 12----29.90- 88.0- 78.6---
2026-09-05 03:20 pm W 10 15----29.91- 87.3- 77.7---
2026-09-05 03:10 pm W 10 16----29.91- 87.8- 78.4---
2026-09-05 03:00 pm W 8 12----29.91-0.05 88.5- 78.1---
2026-09-05 02:50 pm W 9 14----29.91- 87.6- 78.1---
2026-09-05 02:40 pm W 7 12----29.91- 88.3- 78.4---
2026-09-05 02:30 pm W 7 13----29.92- 88.2- 78.3---
2026-09-05 02:20 pm W 7 12----29.92- 88.0- 78.4---
2026-09-05 02:10 pm W 7 11----29.92- 88.0- 78.3---
2026-09-05 02:00 pm W 6 12----29.93-0.04 87.6- 77.4---
2026-09-05 01:50 pmWSW 6 11----29.93- 87.8- 77.7---
2026-09-05 01:40 pmWSW 7 10----29.93- 87.8- 77.0---
2026-09-05 01:30 pmWSW 6 11----29.93- 87.4- 77.4---
2026-09-05 01:20 pmWSW 6 10----29.93- 87.8- 77.9---
2026-09-05 01:10 pmWSW 7 11----29.94- 87.4- 77.0---
2026-09-05 01:00 pm W 6 10----29.94-0.01 88.0- 76.8---
2026-09-05 12:50 pm W 6 10----29.95- 87.6- 77.2---
2026-09-05 12:40 pmWSW 6 9----29.95- 87.6- 77.2---
2026-09-05 12:30 pm W 6 10----29.96- 87.4- 77.4---
2026-09-05 12:20 pm W 6 11----29.96- 87.6- 77.5---
2026-09-05 12:10 pmWSW 5 9----29.96- 87.6- 77.5---
2026-09-05 12:00 pm W 6 11----29.96+0.01 87.6- 77.7---
2026-09-05 11:50 amWSW 6 10----29.96- 87.4- 77.5---
2026-09-05 11:40 am W 6 10----29.96- 87.3- 77.5---
2026-09-05 11:30 am W 5 9----29.97- 87.4- 78.1---
2026-09-05 11:20 amWSW 5 8----29.96- 87.1- 78.1---
2026-09-05 11:10 am W 4 7----29.97- 86.7- 77.9---
2026-09-05 11:00 am W 5 8----29.96+0.01 86.2- 77.9---
2026-09-05 10:50 amWSW 5 8----29.96- 85.6- 77.9---
2026-09-05 10:40 amWSW 5 8----29.96- 85.6- 77.7---
2026-09-05 10:30 amWSW 5 8----29.96- 86.0- 78.1---
2026-09-05 10:20 amWSW 5 9----29.96- 86.2- 77.7---
2026-09-05 10:10 am W 5 10----29.96- 86.0- 77.7---
2026-09-05 10:00 amWSW 5 9----29.96+0.03 85.8- 77.9---
2026-09-05 09:50 am W 5 8----29.96- 85.5- 77.7---
2026-09-05 09:40 amWSW 4 7----29.96- 85.5- 78.3---
2026-09-05 09:30 amWSW 5 8----29.96- 85.1- 78.1---
2026-09-05 09:20 amWSW 5 7----29.96- 85.1- 78.1---
2026-09-05 09:10 amWSW 5 8----29.96- 85.1- 78.3---
2026-09-05 09:00 amWSW 5 10----29.95+0.03 84.9- 78.1---
2026-09-05 08:50 am SW 6 10----29.95- 84.9- 78.1---
2026-09-05 08:40 am SW 5 8----29.95- 85.6- 78.3---
2026-09-05 08:30 am SW 4 7----29.94- 85.8- 78.3---
2026-09-05 08:20 am SW 5 7----29.94- 85.6- 78.1---
2026-09-05 08:10 am SW 5 9----29.94- 85.1- 78.1---
2026-09-05 08:00 am SW 5 8----29.95+0.03 84.7- 77.7---
2026-09-05 07:50 am SW 5 10----29.94- 84.7- 77.7---